createdAt,value
2023-02-01T00:02:19.090Z,2.63
2023-02-01T00:07:20.927Z,3.60
2023-02-01T00:12:22.754Z,3.30
2023-02-01T00:17:25.105Z,3.22
2023-02-01T00:22:26.939Z,3.47
2023-02-01T00:27:28.883Z,3.30
2023-02-01T00:32:32.992Z,3.38
2023-02-01T00:37:34.871Z,3.92
2023-02-01T00:42:36.811Z,4.20
2023-02-01T00:47:38.698Z,3.15
2023-02-01T00:52:40.556Z,3.03
2023-02-01T00:57:42.401Z,3.45
2023-02-01T01:02:44.250Z,3.00
2023-02-01T01:07:46.121Z,3.30
2023-02-01T01:12:48.227Z,3.22
2023-02-01T01:17:50.073Z,2.50
2023-02-01T01:22:51.934Z,3.28
2023-02-01T01:27:53.882Z,3.03
2023-02-01T01:32:55.752Z,2.97
2023-02-01T01:37:57.972Z,2.15
2023-02-01T01:43:00.150Z,2.05
2023-02-01T01:48:20.003Z,2.53
2023-02-01T01:53:28.828Z,2.25
2023-02-01T01:58:34.525Z,2.53
2023-02-01T02:03:43.407Z,2.70
2023-02-01T02:08:45.586Z,2.10
2023-02-01T02:13:55.193Z,2.40
2023-02-01T02:19:32.217Z,2.72
2023-02-01T02:24:48.060Z,2.45
2023-02-01T02:30:11.728Z,2.15
2023-02-01T02:35:37.546Z,2.50
2023-02-01T02:41:34.720Z,3.75
2023-02-01T02:47:01.512Z,1.85
2023-02-01T02:52:29.461Z,2.65
2023-02-01T02:57:54.786Z,2.33
2023-02-01T03:03:15.443Z,2.42
2023-02-01T03:08:20.847Z,2.35
2023-02-01T03:13:34.359Z,2.75
2023-02-01T03:18:52.084Z,2.42
2023-02-01T03:24:00.891Z,2.83
2023-02-01T03:29:15.246Z,2.88
2023-02-01T03:34:18.765Z,2.65
2023-02-01T03:39:35.803Z,2.10
2023-02-01T03:44:48.138Z,2.45
2023-02-01T03:49:58.790Z,3.17
2023-02-01T03:55:02.612Z,2.45
2023-02-01T04:00:12.831Z,2.38
2023-02-01T04:05:20.108Z,2.88
2023-02-01T04:10:30.037Z,2.50
2023-02-01T04:15:31.940Z,2.30
2023-02-01T04:20:33.804Z,2.42
2023-02-01T04:25:35.656Z,1.98
2023-02-01T04:30:37.625Z,2.90
2023-02-01T04:35:39.501Z,2.30
2023-02-01T04:40:41.325Z,2.60
2023-02-01T04:45:47.417Z,2.47
2023-02-01T04:50:49.812Z,1.98
2023-02-01T04:55:51.667Z,2.05
2023-02-01T05:00:53.563Z,2.15
2023-02-01T05:05:55.405Z,3.35
2023-02-01T05:10:57.482Z,2.65
2023-02-01T05:15:59.368Z,1.90
2023-02-01T05:21:02.108Z,2.97
2023-02-01T05:26:05.328Z,2.78
2023-02-01T05:31:11.702Z,2.72
2023-02-01T05:36:13.745Z,2.35
2023-02-01T05:41:15.645Z,2.58
2023-02-01T05:46:17.497Z,3.03
2023-02-01T05:51:19.488Z,2.13
2023-02-01T05:56:21.369Z,2.42
2023-02-01T06:01:23.234Z,2.33
2023-02-01T06:06:25.033Z,2.45
2023-02-01T06:11:34.298Z,2.58
2023-02-01T06:16:36.191Z,2.33
2023-02-01T06:21:38.182Z,2.70
2023-02-01T06:26:41.163Z,2.65
2023-02-01T06:31:43.920Z,2.17
2023-02-01T06:36:45.805Z,2.88
2023-02-01T06:41:51.502Z,2.25
2023-02-01T06:46:53.399Z,2.97
2023-02-01T06:51:55.288Z,2.53
2023-02-01T06:56:57.080Z,2.90
2023-02-01T07:01:58.970Z,3.35
2023-02-01T07:07:00.878Z,4.22
2023-02-01T07:12:02.715Z,2.58
2023-02-01T07:17:04.539Z,2.40
2023-02-01T07:22:06.427Z,2.78
2023-02-01T07:27:08.285Z,2.60
2023-02-01T07:32:10.265Z,2.75
2023-02-01T07:37:12.192Z,2.65
2023-02-01T07:42:14.036Z,3.05
2023-02-01T07:47:15.855Z,3.58
2023-02-01T07:52:17.884Z,3.70
2023-02-01T07:57:20.663Z,3.63
2023-02-01T08:02:22.511Z,2.97
2023-02-01T08:07:24.429Z,3.10
2023-02-01T08:12:26.560Z,3.33
2023-02-01T08:17:29.542Z,3.22
2023-02-01T08:22:34.382Z,2.63
2023-02-01T08:27:37.001Z,2.72
2023-02-01T08:32:39.173Z,3.65
2023-02-01T08:37:41.424Z,4.15
2023-02-01T08:42:52.289Z,3.35
2023-02-01T08:47:54.666Z,2.28
2023-02-01T08:52:56.603Z,2.72
2023-02-01T08:57:58.552Z,4.55
2023-02-01T09:03:00.437Z,2.90
2023-02-01T09:08:02.272Z,4.07
2023-02-01T09:13:04.263Z,3.65
2023-02-01T09:18:06.157Z,2.47
2023-02-01T09:23:08.486Z,2.40
2023-02-01T09:28:10.426Z,2.42
2023-02-01T09:33:12.277Z,2.78
2023-02-01T09:38:14.137Z,2.95
2023-02-01T09:43:23.951Z,2.75
2023-02-01T09:48:33.292Z,3.20
2023-02-01T09:53:39.625Z,3.80
2023-02-01T09:58:57.643Z,2.33
2023-02-01T10:04:06.442Z,2.20
2023-02-01T10:09:42.505Z,2.30
2023-02-01T10:15:15.413Z,2.38
2023-02-01T10:20:41.575Z,1.40
2023-02-01T10:25:57.466Z,2.17
2023-02-01T10:30:59.928Z,2.60
2023-02-01T10:36:18.097Z,2.10
2023-02-01T10:41:23.013Z,2.70
2023-02-01T10:46:25.730Z,2.30
2023-02-01T10:51:34.899Z,2.88
2023-02-01T10:56:39.449Z,2.07
2023-02-01T11:01:43.051Z,2.47
2023-02-01T11:06:46.745Z,3.75
2023-02-01T11:11:48.580Z,3.42
2023-02-01T11:17:01.186Z,2.92
2023-02-01T11:22:05.405Z,2.58
2023-02-01T11:27:18.858Z,2.60
2023-02-01T11:38:15.284Z,2.80
2023-02-01T11:43:29.941Z,3.08
2023-02-01T11:48:33.783Z,2.42
2023-02-01T11:53:54.451Z,3.20
2023-02-01T11:59:17.389Z,1.65
2023-02-01T12:04:19.164Z,2.72
2023-02-01T12:09:36.758Z,2.45
2023-02-01T12:14:41.609Z,2.95
2023-02-01T12:20:11.478Z,2.85
2023-02-01T12:25:37.632Z,2.93
2023-02-01T12:31:06.321Z,2.60
2023-02-01T12:36:39.680Z,3.50
2023-02-01T12:42:04.514Z,4.43
2023-02-01T12:47:21.634Z,2.45
2023-02-01T12:52:35.801Z,3.53
2023-02-01T12:57:43.913Z,2.90
2023-02-01T13:02:55.546Z,2.47
2023-02-01T13:08:32.815Z,2.30
2023-02-01T13:13:47.679Z,2.42
2023-02-01T13:18:53.305Z,2.35
2023-02-01T13:23:55.606Z,3.42
2023-02-01T13:29:17.996Z,2.10
2023-02-01T13:34:47.513Z,2.50
2023-02-01T13:40:17.929Z,2.45
2023-02-01T13:45:26.346Z,2.90
2023-02-01T13:50:31.723Z,1.83
2023-02-01T13:55:37.349Z,2.20
2023-02-01T14:00:41.402Z,1.95
2023-02-01T14:05:44.947Z,2.22
2023-02-01T14:10:48.507Z,2.88
2023-02-01T14:16:17.791Z,2.50
2023-02-01T14:21:35.155Z,2.30
2023-02-01T14:26:46.847Z,2.40
2023-02-01T14:32:03.892Z,2.97
2023-02-01T14:37:09.875Z,2.15
2023-02-01T14:42:23.506Z,2.97
2023-02-01T14:47:25.312Z,3.85
2023-02-01T14:52:46.170Z,3.00
2023-02-01T14:57:51.619Z,2.38
2023-02-01T15:02:55.470Z,2.58
2023-02-01T15:08:01.480Z,3.13
2023-02-01T15:13:03.335Z,3.22
2023-02-01T15:18:05.222Z,3.10
2023-02-01T15:23:18.047Z,3.88
2023-02-01T15:28:20.774Z,2.53
2023-02-01T15:33:22.755Z,3.10
2023-02-01T15:38:24.581Z,2.83
2023-02-01T15:43:28.395Z,2.20
2023-02-01T15:48:40.714Z,2.97
2023-02-01T15:53:48.214Z,3.08
2023-02-01T15:58:54.299Z,3.10
2023-02-01T16:04:16.226Z,4.47
2023-02-01T16:09:21.096Z,3.90
2023-02-01T16:14:24.107Z,3.83
2023-02-01T16:19:29.277Z,3.58
2023-02-01T16:24:32.791Z,4.63
2023-02-01T16:29:34.964Z,4.78
2023-02-01T16:34:37.940Z,4.32
2023-02-01T16:39:40.004Z,4.68
2023-02-01T16:44:42.163Z,4.53
2023-02-01T16:49:44.963Z,4.43
2023-02-01T16:54:47.056Z,6.65
2023-02-01T16:59:49.262Z,5.47
2023-02-01T17:04:51.199Z,4.55
2023-02-01T17:09:53.386Z,2.78
2023-02-01T17:14:55.335Z,2.90
2023-02-01T17:19:57.313Z,1.85
2023-02-01T17:24:59.467Z,1.55
2023-02-01T17:30:04.294Z,1.00
2023-02-01T17:35:14.796Z,1.70
2023-02-01T17:40:17.091Z,1.35
2023-02-01T17:45:37.625Z,1.10
2023-02-01T17:50:40.105Z,1.00
2023-02-01T17:55:45.262Z,1.60
2023-02-01T18:00:48.883Z,1.20
2023-02-01T18:05:53.705Z,0.93
2023-02-01T18:11:00.850Z,1.00
2023-02-01T18:16:04.668Z,1.73
2023-02-01T18:21:06.610Z,1.30
2023-02-01T18:26:12.155Z,1.13
2023-02-01T18:31:25.775Z,2.00
2023-02-01T18:36:31.333Z,1.40
2023-02-01T18:41:34.248Z,1.30
2023-02-01T18:46:36.207Z,1.20
2023-02-01T18:51:38.559Z,0.90
2023-02-01T18:56:40.495Z,1.20
2023-02-01T19:01:44.481Z,1.08
2023-02-01T19:06:46.941Z,1.70
2023-02-01T19:11:49.255Z,1.10
2023-02-01T19:16:51.262Z,1.30
2023-02-01T19:21:53.128Z,1.13
2023-02-01T19:26:55.286Z,0.90
2023-02-01T19:31:57.763Z,1.33
2023-02-01T19:37:00.887Z,1.35
2023-02-01T19:42:04.250Z,1.00
2023-02-01T19:47:06.347Z,1.00
2023-02-01T19:52:08.217Z,1.30
2023-02-01T19:57:10.184Z,0.85
2023-02-01T20:02:15.282Z,1.50
2023-02-01T20:07:17.206Z,1.20
2023-02-01T20:12:19.100Z,1.33
2023-02-01T20:17:20.937Z,1.10
2023-02-01T20:22:22.765Z,1.50
2023-02-01T20:27:26.205Z,1.17
2023-02-01T20:32:28.151Z,1.50
2023-02-01T20:37:30.207Z,0.98
2023-02-01T20:42:32.098Z,1.20
2023-02-01T20:47:34.015Z,1.55
2023-02-01T20:52:36.047Z,1.20
2023-02-01T20:57:37.987Z,2.10
2023-02-01T21:02:40.024Z,1.55
2023-02-01T21:07:42.127Z,1.33
2023-02-01T21:12:44.016Z,1.30
2023-02-01T21:17:45.842Z,1.10
2023-02-01T21:22:47.681Z,1.42
2023-02-01T21:27:49.588Z,1.05
2023-02-01T21:32:51.769Z,1.60
2023-02-01T21:37:53.641Z,1.20
2023-02-01T21:42:55.612Z,1.55
2023-02-01T21:47:57.558Z,1.50
2023-02-01T21:52:59.364Z,1.35
2023-02-01T21:58:01.256Z,1.55
2023-02-01T22:03:03.084Z,1.52
2023-02-01T22:08:05.267Z,1.50
2023-02-01T22:13:07.884Z,1.85
2023-02-01T22:18:09.825Z,2.40
2023-02-01T22:23:11.660Z,2.35
2023-02-01T22:28:33.013Z,2.08
2023-02-01T22:33:35.498Z,2.13
2023-02-01T22:38:37.413Z,1.67
2023-02-01T22:43:39.745Z,1.88
2023-02-01T22:48:43.265Z,2.33
2023-02-01T22:53:45.668Z,2.35
2023-02-01T22:58:47.467Z,2.40
2023-02-01T23:03:49.524Z,1.63
2023-02-01T23:08:58.168Z,1.88
2023-02-01T23:14:00.047Z,1.83
2023-02-01T23:19:02.371Z,1.52
2023-02-01T23:24:07.402Z,1.48
2023-02-01T23:29:16.130Z,1.70
2023-02-01T23:34:17.892Z,1.65
2023-02-01T23:39:19.639Z,1.65
2023-02-01T23:44:21.446Z,1.42
2023-02-01T23:49:23.219Z,1.85
2023-02-01T23:54:25.012Z,2.00
2023-02-01T23:59:26.965Z,1.50
